createdAt,value
2018-11-07T00:00:53.698Z,144.83
2018-11-07T00:03:21.538Z,147.40
2018-11-07T00:05:49.193Z,126.40
2018-11-07T00:08:17.306Z,129.70
2018-11-07T00:10:44.946Z,113.23
2018-11-07T00:13:12.629Z,122.73
2018-11-07T00:15:40.560Z,131.10
2018-11-07T00:18:08.463Z,138.80
2018-11-07T00:20:36.232Z,122.70
2018-11-07T00:23:03.990Z,136.37
2018-11-07T00:25:31.732Z,134.83
2018-11-07T00:27:59.393Z,131.33
2018-11-07T00:30:27.076Z,147.77
2018-11-07T00:32:54.806Z,136.53
2018-11-07T00:35:22.462Z,106.77
2018-11-07T00:37:50.039Z,148.73
2018-11-07T00:40:17.727Z,130.97
2018-11-07T00:42:45.374Z,119.60
2018-11-07T00:45:13.675Z,131.07
2018-11-07T00:47:41.560Z,123.10
2018-11-07T00:50:10.218Z,142.03
2018-11-07T00:52:37.864Z,145.23
2018-11-07T00:55:05.622Z,134.13
2018-11-07T00:57:33.318Z,155.63
2018-11-07T01:00:01.006Z,147.23
2018-11-07T01:02:28.739Z,134.40
2018-11-07T01:04:56.431Z,134.13
2018-11-07T01:07:24.122Z,137.07
2018-11-07T01:09:51.926Z,141.97
2018-11-07T01:12:19.653Z,143.03
2018-11-07T01:14:47.349Z,118.53
2018-11-07T01:17:15.119Z,142.80
2018-11-07T01:19:42.874Z,136.73
2018-11-07T01:22:10.691Z,120.50
2018-11-07T01:24:38.423Z,125.47
2018-11-07T01:27:06.163Z,105.87
2018-11-07T01:29:33.940Z,124.57
2018-11-07T01:32:01.700Z,115.07
2018-11-07T01:34:29.472Z,102.47
2018-11-07T01:36:57.239Z,127.20
2018-11-07T01:39:24.876Z,112.00
2018-11-07T01:41:52.572Z,124.53
2018-11-07T01:44:20.261Z,134.40
2018-11-07T01:46:47.985Z,128.90
2018-11-07T01:49:15.698Z,134.83
2018-11-07T01:51:43.350Z,121.40
2018-11-07T01:54:11.074Z,119.50
2018-11-07T01:56:38.767Z,125.57
2018-11-07T01:59:06.449Z,142.43
2018-11-07T02:01:34.131Z,112.43
2018-11-07T02:04:01.792Z,129.33
2018-11-07T02:06:29.471Z,137.00
2018-11-07T02:08:57.261Z,140.07
2018-11-07T02:11:24.905Z,125.73
2018-11-07T02:13:52.520Z,114.13
2018-11-07T02:16:20.213Z,130.80
2018-11-07T02:18:47.893Z,130.70
2018-11-07T02:21:15.563Z,135.97
2018-11-07T02:23:43.193Z,117.53
2018-11-07T02:26:10.883Z,135.70
2018-11-07T02:28:38.551Z,145.47
2018-11-07T02:31:06.243Z,150.87
2018-11-07T02:33:33.971Z,133.73
2018-11-07T02:36:01.663Z,145.20
2018-11-07T02:38:29.334Z,140.47
2018-11-07T02:40:57.031Z,151.43
2018-11-07T02:43:24.678Z,150.53
2018-11-07T02:45:52.344Z,157.77
2018-11-07T02:48:20.056Z,148.97
2018-11-07T02:50:47.707Z,148.10
2018-11-07T02:53:15.400Z,135.63
2018-11-07T02:55:43.116Z,138.63
2018-11-07T02:58:10.793Z,146.67
2018-11-07T03:00:38.457Z,130.13
2018-11-07T03:03:06.126Z,150.87
2018-11-07T03:05:33.808Z,146.30
2018-11-07T03:08:01.467Z,132.33
2018-11-07T03:10:29.160Z,137.50
2018-11-07T03:12:56.823Z,167.67
2018-11-07T03:15:24.479Z,138.30
2018-11-07T03:17:52.120Z,144.17
2018-11-07T03:20:19.733Z,157.10
2018-11-07T03:22:47.341Z,154.70
2018-11-07T03:25:15.062Z,148.40
2018-11-07T03:27:42.695Z,150.47
2018-11-07T03:30:10.816Z,133.13
2018-11-07T03:32:38.462Z,167.87
2018-11-07T03:35:06.376Z,151.33
2018-11-07T03:37:34.059Z,154.20
2018-11-07T03:40:01.718Z,145.33
2018-11-07T03:42:29.439Z,133.40
2018-11-07T03:44:57.151Z,157.83
2018-11-07T03:47:24.807Z,123.27
2018-11-07T03:49:52.525Z,139.10
2018-11-07T03:52:20.213Z,127.93
2018-11-07T03:54:47.881Z,174.97
2018-11-07T03:57:15.545Z,144.17
2018-11-07T03:59:43.222Z,122.40
2018-11-07T04:02:10.840Z,130.93
2018-11-07T04:04:38.558Z,127.63
2018-11-07T04:07:06.241Z,129.43
2018-11-07T04:09:33.903Z,136.67
2018-11-07T04:12:01.577Z,110.93
2018-11-07T04:14:29.268Z,140.97
2018-11-07T04:16:56.998Z,133.03
2018-11-07T04:19:24.721Z,117.67
2018-11-07T04:21:52.454Z,123.80
2018-11-07T04:24:20.151Z,113.73
2018-11-07T04:26:47.822Z,132.23
2018-11-07T04:29:15.469Z,131.50
2018-11-07T04:31:43.219Z,126.63
2018-11-07T04:34:10.988Z,129.07
2018-11-07T04:36:38.873Z,134.00
2018-11-07T04:39:08.045Z,120.23
2018-11-07T04:41:35.645Z,117.93
2018-11-07T04:44:03.272Z,128.90
2018-11-07T04:46:30.904Z,117.03
2018-11-07T04:48:58.623Z,140.03
2018-11-07T04:51:26.337Z,109.43
2018-11-07T04:53:53.917Z,122.07
2018-11-07T04:56:21.576Z,124.70
2018-11-07T04:58:49.246Z,103.47
2018-11-07T05:01:16.906Z,125.93
2018-11-07T05:03:44.572Z,110.10
2018-11-07T05:06:12.333Z,124.67
2018-11-07T05:08:40.089Z,132.43
2018-11-07T05:11:07.691Z,132.97
2018-11-07T05:13:35.375Z,142.00
2018-11-07T05:16:03.136Z,125.27
2018-11-07T05:18:31.012Z,148.63
2018-11-07T05:20:58.841Z,138.87
2018-11-07T05:23:26.531Z,125.27
2018-11-07T05:25:54.295Z,123.23
2018-11-07T05:28:21.975Z,151.47
2018-11-07T05:30:49.655Z,141.63
2018-11-07T05:33:17.412Z,142.47
2018-11-07T05:35:45.134Z,124.60
2018-11-07T05:38:12.749Z,176.47
2018-11-07T05:40:40.484Z,130.67
2018-11-07T05:43:08.180Z,139.47
2018-11-07T05:45:36.105Z,146.00
2018-11-07T05:48:04.140Z,143.03
2018-11-07T05:50:32.003Z,143.50
2018-11-07T05:53:00.385Z,146.63
2018-11-07T05:55:28.107Z,146.53
2018-11-07T05:57:55.814Z,143.67
2018-11-07T06:00:23.462Z,175.07
2018-11-07T06:02:51.154Z,136.43
2018-11-07T06:05:18.867Z,141.47
2018-11-07T06:07:46.590Z,135.70
2018-11-07T06:10:14.555Z,148.90
2018-11-07T06:12:42.502Z,128.40
2018-11-07T06:15:11.282Z,144.63
2018-11-07T06:17:39.003Z,120.53
2018-11-07T06:20:07.160Z,127.07
2018-11-07T06:22:34.908Z,138.23
2018-11-07T06:25:02.711Z,130.60
2018-11-07T06:27:30.333Z,135.53
2018-11-07T06:29:58.038Z,132.30
2018-11-07T06:32:25.673Z,138.80
2018-11-07T06:34:53.251Z,127.13
2018-11-07T06:37:21.288Z,134.87
2018-11-07T06:39:49.051Z,129.77
2018-11-07T06:42:16.809Z,126.90
2018-11-07T06:44:44.517Z,139.10
2018-11-07T06:47:12.349Z,161.60
2018-11-07T06:49:40.065Z,147.30
2018-11-07T06:52:07.805Z,121.17
2018-11-07T06:54:35.503Z,134.43
2018-11-07T06:57:03.227Z,125.93
2018-11-07T06:59:30.955Z,131.47
2018-11-07T07:01:58.772Z,132.80
2018-11-07T07:04:26.425Z,142.20
2018-11-07T07:06:54.797Z,132.57
2018-11-07T07:09:22.842Z,161.57
2018-11-07T07:11:50.537Z,156.80
2018-11-07T07:14:18.297Z,117.63
2018-11-07T07:16:45.993Z,125.47
2018-11-07T07:19:13.834Z,118.87
2018-11-07T07:21:41.524Z,132.30
2018-11-07T07:24:09.293Z,138.37
2018-11-07T07:26:37.021Z,130.40
2018-11-07T07:29:05.742Z,108.00
2018-11-07T07:31:33.659Z,127.93
2018-11-07T07:34:04.825Z,134.10
2018-11-07T07:36:33.155Z,121.03
2018-11-07T07:39:01.489Z,123.20
2018-11-07T07:41:30.171Z,125.23
2018-11-07T07:43:58.305Z,131.33
2018-11-07T07:46:26.970Z,128.70
2018-11-07T07:48:54.671Z,120.40
2018-11-07T07:51:22.740Z,116.57
2018-11-07T07:53:51.154Z,114.40
2018-11-07T07:56:18.927Z,133.17
2018-11-07T07:58:46.676Z,118.40
2018-11-07T08:01:14.523Z,124.90
2018-11-07T08:03:42.373Z,124.70
2018-11-07T08:06:10.116Z,109.60
2018-11-07T08:08:39.442Z,104.40
2018-11-07T08:11:14.364Z,99.50
2018-11-07T08:13:46.212Z,105.97
2018-11-07T08:16:17.451Z,102.33
2018-11-07T08:18:48.349Z,96.70
2018-11-07T08:21:16.475Z,102.80
2018-11-07T08:23:44.955Z,90.20
2018-11-07T08:26:12.821Z,95.50
2018-11-07T08:28:40.984Z,93.13
2018-11-07T08:31:09.680Z,81.77
2018-11-07T08:33:37.975Z,82.43
2018-11-07T08:36:06.802Z,82.93
2018-11-07T08:38:35.360Z,80.93
2018-11-07T08:41:03.663Z,69.40
2018-11-07T08:43:34.250Z,87.10
2018-11-07T08:46:02.027Z,60.47
2018-11-07T08:48:29.733Z,64.90
2018-11-07T08:50:57.356Z,71.37
2018-11-07T08:53:25.176Z,65.07
2018-11-07T08:55:53.358Z,70.30
2018-11-07T08:58:21.068Z,67.23
2018-11-07T09:00:48.848Z,73.20
2018-11-07T09:03:16.503Z,67.77
2018-11-07T09:05:45.263Z,69.43
2018-11-07T09:08:13.565Z,75.03
2018-11-07T09:10:41.505Z,64.80
2018-11-07T09:13:10.990Z,62.63
2018-11-07T09:15:38.779Z,61.60
2018-11-07T09:18:06.772Z,62.20
2018-11-07T09:20:34.606Z,59.73
2018-11-07T09:23:02.879Z,69.37
2018-11-07T09:25:30.724Z,48.93
2018-11-07T09:27:58.430Z,46.03
2018-11-07T09:30:26.226Z,53.17
2018-11-07T09:32:54.047Z,57.37
2018-11-07T09:35:22.014Z,54.57
2018-11-07T09:37:50.371Z,57.17
2018-11-07T09:40:19.602Z,56.70
2018-11-07T09:42:48.138Z,46.03
2018-11-07T09:45:17.358Z,52.03
2018-11-07T09:47:45.838Z,52.77
2018-11-07T09:50:14.728Z,49.90
2018-11-07T09:52:42.935Z,63.63
2018-11-07T09:55:12.008Z,51.67
2018-11-07T09:57:40.516Z,46.20
2018-11-07T10:00:09.643Z,45.40
2018-11-07T10:02:38.174Z,53.50
2018-11-07T10:05:07.942Z,50.70
2018-11-07T10:07:37.035Z,55.30
2018-11-07T10:10:06.346Z,50.50
2018-11-07T10:12:34.293Z,49.70
2018-11-07T10:15:02.200Z,40.70
2018-11-07T10:17:29.861Z,45.27
2018-11-07T10:19:57.603Z,49.60
2018-11-07T10:22:27.653Z,50.17
2018-11-07T10:24:55.689Z,46.07
2018-11-07T10:27:23.803Z,55.20
2018-11-07T10:29:52.356Z,50.90
2018-11-07T10:32:20.029Z,52.03
2018-11-07T10:34:47.899Z,46.60
2018-11-07T10:37:15.777Z,54.33
2018-11-07T10:39:43.766Z,46.17
2018-11-07T10:42:11.967Z,46.93
2018-11-07T10:44:39.904Z,49.93
2018-11-07T10:47:07.857Z,46.10
2018-11-07T10:49:35.781Z,53.13
2018-11-07T10:52:04.673Z,47.50
2018-11-07T10:54:32.545Z,49.30
2018-11-07T10:57:00.719Z,44.73
2018-11-07T10:59:28.928Z,49.50
2018-11-07T11:02:04.151Z,47.17
2018-11-07T11:04:37.041Z,54.73
2018-11-07T11:07:05.376Z,43.00
2018-11-07T11:09:34.140Z,50.23
2018-11-07T11:12:02.379Z,44.93
2018-11-07T11:14:30.458Z,52.87
2018-11-07T11:16:58.549Z,45.23
2018-11-07T11:19:26.470Z,48.17
2018-11-07T11:21:54.583Z,46.90
2018-11-07T11:24:22.568Z,49.50
2018-11-07T11:26:50.279Z,44.13
2018-11-07T11:29:18.945Z,43.53
2018-11-07T11:31:47.371Z,45.47
2018-11-07T11:34:17.989Z,50.90
2018-11-07T11:36:46.352Z,48.03
2018-11-07T11:39:14.429Z,39.63
2018-11-07T11:41:43.241Z,34.80
2018-11-07T11:44:11.577Z,40.40
2018-11-07T11:46:40.445Z,37.90
2018-11-07T11:49:08.144Z,33.63
2018-11-07T11:51:40.257Z,36.90
2018-11-07T11:54:08.296Z,38.33
2018-11-07T11:56:36.067Z,36.30
2018-11-07T11:59:04.225Z,35.50
2018-11-07T12:01:32.134Z,34.00
2018-11-07T12:04:00.120Z,31.27
2018-11-07T12:06:28.200Z,37.80
2018-11-07T12:08:56.114Z,33.90
2018-11-07T12:11:24.161Z,35.43
2018-11-07T12:13:52.235Z,32.23
2018-11-07T12:16:20.399Z,32.70
2018-11-07T12:18:48.439Z,32.97
2018-11-07T12:21:16.985Z,31.87
2018-11-07T12:23:44.887Z,31.77
2018-11-07T12:26:12.862Z,32.20
2018-11-07T12:28:41.168Z,33.87
2018-11-07T12:31:08.931Z,30.13
2018-11-07T12:33:36.664Z,28.67
2018-11-07T12:36:06.384Z,35.93
2018-11-07T12:38:34.041Z,37.13
2018-11-07T12:41:01.864Z,31.50
2018-11-07T12:43:30.510Z,33.13
2018-11-07T12:45:59.620Z,32.13
2018-11-07T12:48:27.465Z,40.13
2018-11-07T12:50:55.423Z,36.73
2018-11-07T12:53:24.043Z,31.23
2018-11-07T12:55:52.730Z,36.30
2018-11-07T12:58:20.689Z,39.60
2018-11-07T13:00:48.255Z,37.40
2018-11-07T13:03:16.263Z,35.90
2018-11-07T13:05:44.364Z,34.43
2018-11-07T13:08:16.043Z,36.50
2018-11-07T13:10:48.495Z,39.70
2018-11-07T13:13:16.118Z,32.50
2018-11-07T13:15:43.835Z,39.60
2018-11-07T13:18:14.528Z,36.13
2018-11-07T13:20:45.324Z,42.67
2018-11-07T13:23:12.964Z,34.70
2018-11-07T13:25:43.604Z,36.37
2018-11-07T13:28:11.977Z,40.17
2018-11-07T13:30:40.445Z,39.17
2018-11-07T13:33:08.215Z,41.90
2018-11-07T13:35:36.275Z,44.80
2018-11-07T13:38:04.661Z,41.83
2018-11-07T13:40:32.432Z,45.43
2018-11-07T13:43:00.361Z,47.93
2018-11-07T13:45:28.248Z,42.97
2018-11-07T13:47:55.851Z,46.00
2018-11-07T13:50:23.678Z,41.93
2018-11-07T13:52:51.773Z,42.67
2018-11-07T13:55:19.811Z,46.77
2018-11-07T13:57:47.867Z,42.50
2018-11-07T14:00:22.848Z,48.40
2018-11-07T14:02:51.441Z,47.20
2018-11-07T14:05:19.579Z,49.03
2018-11-07T14:07:47.660Z,47.80
2018-11-07T14:10:19.432Z,45.27
2018-11-07T14:12:48.186Z,48.00
2018-11-07T14:15:16.091Z,44.27
2018-11-07T14:17:44.685Z,51.00
2018-11-07T14:20:12.520Z,44.97
2018-11-07T14:22:41.542Z,47.20
2018-11-07T14:25:09.866Z,45.73
2018-11-07T14:27:40.935Z,49.93
2018-11-07T14:30:11.070Z,43.87
2018-11-07T14:32:41.875Z,47.63
2018-11-07T14:35:10.187Z,44.10
2018-11-07T14:37:37.944Z,43.97
2018-11-07T14:40:06.127Z,47.57
2018-11-07T14:42:33.799Z,46.33
2018-11-07T14:45:01.728Z,50.90
2018-11-07T14:47:29.585Z,46.97
2018-11-07T14:49:57.294Z,50.83
2018-11-07T14:52:25.610Z,45.10
2018-11-07T14:54:53.555Z,57.13
2018-11-07T14:57:22.105Z,48.30
2018-11-07T14:59:50.840Z,50.00
2018-11-07T15:02:18.555Z,50.27
2018-11-07T15:04:51.057Z,52.87
2018-11-07T15:07:19.045Z,55.00
2018-11-07T15:09:50.061Z,50.70
2018-11-07T15:12:21.087Z,46.37
2018-11-07T15:14:49.834Z,47.27
2018-11-07T15:17:18.731Z,49.67
2018-11-07T15:19:47.139Z,58.90
2018-11-07T15:22:17.595Z,56.40
2018-11-07T15:24:45.814Z,53.60
2018-11-07T15:27:15.442Z,54.63
2018-11-07T15:29:43.746Z,57.93
2018-11-07T15:32:11.454Z,65.80
2018-11-07T15:34:39.135Z,53.63
2018-11-07T15:37:07.490Z,60.47
2018-11-07T15:39:35.312Z,63.10
2018-11-07T15:42:04.608Z,63.47
2018-11-07T15:44:33.664Z,61.23
2018-11-07T15:47:09.991Z,60.73
2018-11-07T15:49:47.811Z,68.17
2018-11-07T15:52:16.986Z,65.03
2018-11-07T15:54:46.718Z,67.43
2018-11-07T15:57:16.064Z,65.40
2018-11-07T15:59:44.463Z,60.77
2018-11-07T16:02:16.387Z,73.23
2018-11-07T16:04:44.761Z,74.17
2018-11-07T16:07:12.998Z,75.20
2018-11-07T16:09:42.294Z,74.50
2018-11-07T16:12:10.466Z,62.10
2018-11-07T16:14:38.745Z,65.27
2018-11-07T16:17:06.449Z,75.73
2018-11-07T16:19:34.099Z,70.23
2018-11-07T16:22:05.131Z,66.70
2018-11-07T16:24:34.104Z,62.43
2018-11-07T16:27:07.870Z,57.77
2018-11-07T16:29:40.962Z,65.87
2018-11-07T16:32:09.168Z,64.97
2018-11-07T16:34:37.181Z,64.50
2018-11-07T16:37:05.677Z,63.67
2018-11-07T16:39:36.010Z,65.10
2018-11-07T16:42:05.397Z,55.60
2018-11-07T16:44:34.169Z,59.83
2018-11-07T16:47:05.822Z,56.03
2018-11-07T16:49:36.574Z,51.97
2018-11-07T16:52:05.014Z,57.03
2018-11-07T16:54:35.985Z,58.03
2018-11-07T16:57:10.898Z,58.53
2018-11-07T16:59:40.344Z,55.87
2018-11-07T17:02:08.352Z,58.30
2018-11-07T17:04:36.121Z,63.60
2018-11-07T17:07:03.944Z,58.37
2018-11-07T17:09:31.571Z,51.30
2018-11-07T17:11:59.313Z,54.63
2018-11-07T17:14:27.092Z,48.40
2018-11-07T17:16:54.763Z,41.90
2018-11-07T17:19:22.521Z,47.30
2018-11-07T17:21:50.184Z,46.83
2018-11-07T17:24:17.916Z,41.83
2018-11-07T17:26:45.591Z,41.27
2018-11-07T17:29:13.355Z,42.17
2018-11-07T17:31:41.203Z,47.03
2018-11-07T17:34:09.079Z,45.90
2018-11-07T17:36:36.935Z,40.13
2018-11-07T17:39:07.263Z,43.73
2018-11-07T17:41:39.153Z,42.90
2018-11-07T17:44:07.394Z,36.30
2018-11-07T17:46:35.198Z,34.77
2018-11-07T17:49:19.746Z,39.30
2018-11-07T17:51:49.568Z,34.77
2018-11-07T17:54:17.544Z,39.63
2018-11-07T17:56:46.497Z,31.63
2018-11-07T17:59:14.376Z,30.90
2018-11-07T18:01:42.065Z,30.10
2018-11-07T18:04:10.860Z,35.63
2018-11-07T18:06:38.962Z,30.67
2018-11-07T18:09:09.555Z,30.80
2018-11-07T18:11:37.579Z,29.20
2018-11-07T18:14:05.598Z,29.80
2018-11-07T18:16:33.279Z,31.70
2018-11-07T18:19:01.717Z,25.53
2018-11-07T18:21:30.405Z,31.60
2018-11-07T18:23:59.012Z,27.70
2018-11-07T18:26:26.752Z,27.73
2018-11-07T18:28:54.624Z,25.40
2018-11-07T18:31:30.453Z,27.60
2018-11-07T18:34:00.709Z,28.80
2018-11-07T18:36:28.839Z,32.77
2018-11-07T18:38:57.631Z,29.27
2018-11-07T18:41:26.327Z,27.83
2018-11-07T18:44:00.022Z,27.83
2018-11-07T18:46:28.679Z,28.90
2018-11-07T18:48:56.736Z,30.57
2018-11-07T18:51:24.707Z,30.73
2018-11-07T18:53:52.540Z,36.97
2018-11-07T18:56:21.927Z,30.40
2018-11-07T18:58:57.107Z,30.10
2018-11-07T19:01:24.861Z,34.17
2018-11-07T19:03:52.747Z,34.33
2018-11-07T19:06:22.348Z,30.83
2018-11-07T19:08:51.883Z,39.30
2018-11-07T19:11:19.731Z,31.30
2018-11-07T19:13:49.814Z,35.83
2018-11-07T19:16:17.817Z,34.43
2018-11-07T19:18:50.561Z,28.40
2018-11-07T19:21:18.930Z,32.83
2018-11-07T19:23:46.824Z,30.60
2018-11-07T19:26:17.134Z,34.10
2018-11-07T19:28:46.527Z,32.57
2018-11-07T19:31:14.759Z,31.53
2018-11-07T19:33:42.603Z,32.30
2018-11-07T19:36:10.356Z,32.40
2018-11-07T19:38:38.260Z,33.73
2018-11-07T19:41:06.878Z,30.53
2018-11-07T19:43:35.344Z,31.27
2018-11-07T19:46:03.293Z,30.17
2018-11-07T19:48:31.237Z,28.90
2018-11-07T19:50:59.125Z,34.27
2018-11-07T19:53:27.122Z,31.80
2018-11-07T19:55:55.043Z,34.00
2018-11-07T19:58:22.877Z,35.43
2018-11-07T20:00:52.284Z,38.83
2018-11-07T20:03:20.515Z,32.70
2018-11-07T20:05:48.992Z,27.67
2018-11-07T20:08:17.202Z,35.10
2018-11-07T20:10:45.379Z,32.50
2018-11-07T20:13:13.461Z,29.17
2018-11-07T20:15:41.877Z,37.63
2018-11-07T20:18:09.939Z,31.27
2018-11-07T20:20:37.701Z,29.97
2018-11-07T20:23:05.543Z,32.77
2018-11-07T20:25:33.289Z,35.73
2018-11-07T20:28:01.400Z,33.97
2018-11-07T20:30:29.184Z,35.57
2018-11-07T20:32:56.987Z,35.73
2018-11-07T20:35:24.872Z,33.40
2018-11-07T20:37:52.673Z,31.00
2018-11-07T20:40:21.450Z,29.53
2018-11-07T20:42:52.056Z,34.10
2018-11-07T20:45:20.212Z,29.73
2018-11-07T20:47:49.377Z,33.30
2018-11-07T20:50:18.661Z,37.90
2018-11-07T20:52:48.063Z,31.60
2018-11-07T20:55:17.064Z,29.57
2018-11-07T20:57:45.084Z,33.27
2018-11-07T21:00:14.945Z,29.90
2018-11-07T21:02:43.492Z,32.77
2018-11-07T21:05:11.597Z,29.03
2018-11-07T21:07:40.125Z,30.00
2018-11-07T21:10:09.923Z,29.67
2018-11-07T21:12:38.747Z,31.10
2018-11-07T21:15:07.405Z,30.87
2018-11-07T21:17:35.227Z,31.83
2018-11-07T21:20:04.490Z,31.17
2018-11-07T21:22:32.127Z,30.57
2018-11-07T21:25:00.786Z,33.33
2018-11-07T21:27:30.237Z,30.57
2018-11-07T21:29:58.212Z,26.90
2018-11-07T21:32:32.770Z,33.17
2018-11-07T21:35:00.839Z,33.80
2018-11-07T21:37:28.544Z,34.07
2018-11-07T21:39:56.407Z,31.93
2018-11-07T21:42:24.242Z,28.30
2018-11-07T21:44:52.227Z,30.63
2018-11-07T21:47:20.176Z,35.37
2018-11-07T21:49:47.808Z,34.20
2018-11-07T21:52:15.509Z,34.37
2018-11-07T21:54:53.895Z,39.13
2018-11-07T21:57:36.012Z,31.13
2018-11-07T22:00:09.680Z,31.43
2018-11-07T22:02:43.418Z,40.07
2018-11-07T22:05:11.823Z,28.47
2018-11-07T22:07:43.464Z,27.10
2018-11-07T22:10:13.328Z,26.30
2018-11-07T22:12:43.024Z,26.00
2018-11-07T22:15:11.087Z,29.87
2018-11-07T22:17:39.665Z,30.17
2018-11-07T22:20:09.485Z,30.77
2018-11-07T22:22:38.167Z,29.03
2018-11-07T22:25:06.114Z,27.40
2018-11-07T22:27:34.224Z,36.00
2018-11-07T22:30:02.209Z,30.13
2018-11-07T22:32:29.937Z,32.70
2018-11-07T22:34:58.091Z,30.53
2018-11-07T22:37:26.279Z,29.13
2018-11-07T22:39:56.300Z,34.00
2018-11-07T22:42:23.977Z,29.50
2018-11-07T22:44:51.639Z,28.23
2018-11-07T22:47:19.394Z,29.27
2018-11-07T22:49:47.174Z,30.63
2018-11-07T22:52:16.093Z,28.00
2018-11-07T22:54:44.077Z,28.10
2018-11-07T22:57:12.093Z,28.17
2018-11-07T22:59:40.143Z,28.40
2018-11-07T23:02:08.829Z,26.80
2018-11-07T23:04:36.864Z,26.87
2018-11-07T23:07:05.670Z,28.00
2018-11-07T23:09:33.415Z,30.03
2018-11-07T23:12:01.427Z,24.57
2018-11-07T23:14:29.167Z,23.40
2018-11-07T23:16:56.745Z,25.27
2018-11-07T23:19:24.489Z,29.23
2018-11-07T23:21:52.071Z,27.50
2018-11-07T23:24:19.734Z,28.37
2018-11-07T23:26:47.491Z,21.97
2018-11-07T23:29:15.159Z,23.53
2018-11-07T23:31:42.906Z,21.63
2018-11-07T23:34:10.587Z,23.07
2018-11-07T23:36:38.276Z,26.33
2018-11-07T23:39:07.358Z,19.77
2018-11-07T23:41:34.983Z,23.10
2018-11-07T23:44:02.699Z,22.43
2018-11-07T23:46:30.345Z,20.73
2018-11-07T23:48:58.040Z,19.80
2018-11-07T23:51:25.666Z,23.97
2018-11-07T23:53:53.354Z,19.40
2018-11-07T23:56:20.975Z,18.83
2018-11-07T23:58:48.843Z,19.23
